Time;durP1;ratioP1;P1;durP2;ratioP2;P2;SDS_P1;SDS_P2;PMS_P1;PMS_P2;Temp;Humidity;BMP_temperature;BMP_pressure;BME280_temperature;BME280_humidity;BME280_pressure;Samples;Min_cycle;Max_cycle;Signal;HPM_P1;HPM_P2
2021/10/05 00:02:07;;;;;;;37.20;34.53;;;13.80;94.30;;;;;;5076470;28;21226;-75
2021/10/05 00:04:34;;;;;;;36.70;34.10;;;13.80;94.50;;;;;;5081413;28;20481;-75
2021/10/05 00:07:01;;;;;;;37.17;34.33;;;13.90;94.50;;;;;;5083290;28;20472;-75
2021/10/05 00:09:28;;;;;;;36.17;33.57;;;13.80;94.10;;;;;;5071306;28;20452;-75
2021/10/05 00:11:54;;;;;;;36.90;34.10;;;13.80;94.20;;;;;;5072150;28;20474;-75
2021/10/05 00:14:21;;;;;;;36.80;34.00;;;13.80;94.30;;;;;;5076645;28;21031;-75
2021/10/05 00:16:49;;;;;;;36.67;33.77;;;13.80;94.30;;;;;;5075661;28;20473;-75
2021/10/05 00:19:17;;;;;;;38.60;35.60;;;13.80;94.30;;;;;;5071120;28;20531;-75
2021/10/05 00:21:44;;;;;;;35.87;33.27;;;13.80;94.20;;;;;;5078455;28;20466;-75
2021/10/05 00:24:11;;;;;;;37.57;34.57;;;13.80;93.90;;;;;;5071774;28;20469;-76
2021/10/05 00:26:39;;;;;;;37.00;34.27;;;13.80;93.90;;;;;;5074884;28;20446;-75
2021/10/05 00:29:06;;;;;;;38.57;35.67;;;13.80;93.90;;;;;;5071165;28;20470;-76
2021/10/05 00:31:33;;;;;;;39.63;36.63;;;13.80;93.70;;;;;;5070154;28;20480;-76
2021/10/05 00:34:01;;;;;;;38.57;35.57;;;13.80;93.80;;;;;;5073389;28;20480;-75
2021/10/05 00:36:29;;;;;;;38.97;35.93;;;13.70;93.90;;;;;;5075849;28;20847;-75
2021/10/05 00:38:56;;;;;;;39.23;36.13;;;13.80;94.20;;;;;;5070281;28;20458;-75
2021/10/05 00:41:23;;;;;;;40.67;37.43;;;13.80;94.10;;;;;;5073464;28;20474;-75
2021/10/05 00:43:50;;;;;;;41.17;37.97;;;13.70;94.20;;;;;;5069882;28;20456;-75
2021/10/05 00:46:21;;;;;;;38.77;35.67;;;13.70;94.30;;;;;;5072244;28;20446;-75
2021/10/05 00:48:48;;;;;;;39.90;36.80;;;13.70;94.50;;;;;;5070086;28;20486;-75
2021/10/05 00:51:15;;;;;;;38.83;35.93;;;13.80;94.30;;;;;;5069498;28;20476;-75
2021/10/05 00:53:44;;;;;;;39.50;36.60;;;13.70;94.00;;;;;;5071320;28;20484;-75
2021/10/05 00:56:11;;;;;;;37.70;34.87;;;13.70;94.00;;;;;;5078734;28;20548;-75
2021/10/05 00:58:38;;;;;;;40.10;37.00;;;13.70;94.20;;;;;;5075917;28;20453;-75
2021/10/05 01:01:06;;;;;;;40.57;37.07;;;13.70;94.50;;;;;;5082753;28;20536;-75
2021/10/05 01:03:33;;;;;;;38.50;35.60;;;13.80;94.40;;;;;;5070261;28;20568;-76
2021/10/05 01:06:00;;;;;;;38.40;35.50;;;13.80;94.20;;;;;;5070170;28;20975;-75
2021/10/05 01:08:30;;;;;;;41.37;38.07;;;13.80;94.20;;;;;;5074987;28;20541;-76
2021/10/05 01:10:59;;;;;;;40.37;37.20;;;13.80;94.10;;;;;;5069840;28;20816;-76
2021/10/05 01:13:26;;;;;;;42.83;39.37;;;13.90;93.70;;;;;;5069765;28;20477;-76
2021/10/05 01:15:53;;;;;;;41.97;38.57;;;13.90;93.40;;;;;;5071405;28;20462;-75
2021/10/05 01:18:19;;;;;;;43.07;39.57;;;14.00;92.50;;;;;;5071300;28;20453;-76
2021/10/05 01:20:57;;;;;;;39.03;35.83;;;13.90;92.60;;;;;;5076418;28;20473;-76
2021/10/05 01:23:25;;;;;;;39.40;36.30;;;13.80;93.50;;;;;;5070873;28;20557;-76
2021/10/05 01:25:53;;;;;;;41.20;37.90;;;13.70;93.90;;;;;;5084338;28;20465;-75
2021/10/05 01:28:21;;;;;;;40.30;37.10;;;13.70;94.20;;;;;;5089696;28;20449;-75
2021/10/05 01:30:48;;;;;;;38.80;35.80;;;13.70;94.50;;;;;;5082689;28;20565;-75
2021/10/05 01:33:15;;;;;;;40.27;37.07;;;13.60;94.60;;;;;;5076922;28;20453;-75
2021/10/05 01:35:42;;;;;;;39.10;36.00;;;13.60;94.60;;;;;;5080711;28;20457;-75
2021/10/05 01:38:10;;;;;;;39.30;36.30;;;13.60;94.60;;;;;;5080804;28;20460;-75
2021/10/05 01:40:37;;;;;;;39.77;36.70;;;13.70;94.40;;;;;;5072482;28;20476;-75
2021/10/05 01:43:04;;;;;;;40.30;37.20;;;13.70;94.20;;;;;;5078330;28;20461;-75
2021/10/05 01:45:31;;;;;;;40.60;37.30;;;13.70;94.10;;;;;;5070620;28;20977;-76
2021/10/05 01:47:58;;;;;;;39.40;36.27;;;13.60;94.10;;;;;;5069748;28;20956;-76
2021/10/05 01:50:27;;;;;;;40.60;37.20;;;13.60;94.10;;;;;;5068854;28;20477;-75
2021/10/05 01:52:54;;;;;;;41.30;37.93;;;13.70;94.10;;;;;;5069627;28;20549;-76
2021/10/05 01:55:23;;;;;;;41.57;37.77;;;13.70;94.10;;;;;;5069184;28;20462;-75
2021/10/05 01:57:50;;;;;;;41.70;38.40;;;13.60;94.00;;;;;;5069885;28;20482;-76
2021/10/05 02:00:17;;;;;;;41.30;38.00;;;13.60;94.10;;;;;;5073702;28;20474;-75
2021/10/05 02:02:44;;;;;;;40.77;37.57;;;13.60;94.30;;;;;;5069308;28;20472;-76
2021/10/05 02:05:11;;;;;;;41.27;37.87;;;13.70;94.20;;;;;;5070739;28;20493;-76
2021/10/05 02:07:39;;;;;;;38.87;35.87;;;13.70;94.30;;;;;;5069666;28;20542;-75
2021/10/05 02:10:08;;;;;;;42.33;38.93;;;13.70;94.30;;;;;;5072694;28;20544;-76
2021/10/05 02:12:37;;;;;;;39.63;36.53;;;13.70;94.20;;;;;;5069415;28;20533;-76
2021/10/05 02:15:05;;;;;;;39.77;36.37;;;13.80;94.10;;;;;;5067816;28;20537;-76
2021/10/05 02:17:32;;;;;;;41.07;37.73;;;13.70;94.20;;;;;;5069001;28;20477;-76
2021/10/05 02:19:59;;;;;;;40.00;36.83;;;13.60;94.70;;;;;;5074478;28;20474;-77
2021/10/05 02:22:26;;;;;;;41.23;37.83;;;13.60;94.60;;;;;;5079736;28;20458;-76
2021/10/05 02:24:52;;;;;;;41.43;37.97;;;13.50;94.80;;;;;;5082505;28;20938;-76
2021/10/05 02:27:21;;;;;;;38.30;35.23;;;13.60;94.90;;;;;;5077553;28;20442;-76
2021/10/05 02:29:50;;;;;;;42.43;38.90;;;13.60;95.00;;;;;;5076536;28;20816;-76
2021/10/05 02:32:17;;;;;;;42.43;38.80;;;13.60;95.00;;;;;;5075684;28;20552;-75
2021/10/05 02:34:44;;;;;;;41.87;38.40;;;13.70;94.80;;;;;;5073057;28;20446;-75
2021/10/05 02:37:11;;;;;;;41.37;37.93;;;13.60;94.80;;;;;;5090865;28;20491;-75
2021/10/05 02:39:39;;;;;;;41.20;37.73;;;13.50;95.20;;;;;;5081290;28;20533;-75
2021/10/05 02:42:06;;;;;;;43.53;39.97;;;13.50;95.20;;;;;;5082158;28;20476;-75
2021/10/05 02:44:33;;;;;;;41.50;38.17;;;13.50;95.20;;;;;;5077804;28;20814;-75
2021/10/05 02:47:02;;;;;;;43.83;40.33;;;13.30;95.80;;;;;;5075012;28;20832;-75
2021/10/05 02:49:29;;;;;;;42.17;38.57;;;13.20;96.00;;;;;;5072089;28;20449;-75
2021/10/05 02:51:56;;;;;;;41.07;37.47;;;13.30;96.10;;;;;;5076731;28;20476;-75
2021/10/05 02:54:22;;;;;;;41.23;37.93;;;13.30;95.80;;;;;;5080537;28;21088;-75
2021/10/05 02:56:50;;;;;;;42.30;38.70;;;13.30;95.50;;;;;;5083218;28;21184;-75
2021/10/05 02:59:17;;;;;;;42.27;38.77;;;13.20;95.60;;;;;;5079694;28;20449;-75
2021/10/05 03:01:44;;;;;;;39.67;36.27;;;13.30;95.80;;;;;;5089005;28;21066;-75
2021/10/05 03:04:13;;;;;;;42.30;38.80;;;13.30;95.60;;;;;;5084695;28;20454;-75
2021/10/05 03:06:40;;;;;;;40.83;37.33;;;13.30;95.60;;;;;;5084257;28;20453;-75
2021/10/05 03:09:06;;;;;;;43.13;39.53;;;13.20;95.90;;;;;;5079013;28;20454;-75
2021/10/05 03:11:33;;;;;;;43.33;39.67;;;13.20;95.90;;;;;;5072166;28;20472;-75
2021/10/05 03:14:00;;;;;;;41.27;37.87;;;13.20;95.60;;;;;;5073178;28;20442;-75
2021/10/05 03:16:27;;;;;;;42.13;38.70;;;13.20;95.80;;;;;;5071031;28;21258;-75
2021/10/05 03:18:54;;;;;;;40.40;36.90;;;13.20;95.60;;;;;;5072367;28;20469;-75
2021/10/05 03:21:22;;;;;;;39.53;36.37;;;13.20;95.80;;;;;;5071933;28;20470;-75
2021/10/05 03:23:49;;;;;;;39.23;35.97;;;13.10;95.50;;;;;;5072035;28;20458;-75
2021/10/05 03:26:17;;;;;;;41.50;38.13;;;13.10;95.70;;;;;;5071771;28;20461;-75
2021/10/05 03:28:44;;;;;;;42.07;38.57;;;13.10;96.00;;;;;;5072429;28;20451;-75
2021/10/05 03:31:12;;;;;;;39.80;36.30;;;13.20;95.80;;;;;;5079688;28;20481;-75
2021/10/05 03:33:39;;;;;;;38.73;35.30;;;13.10;96.50;;;;;;5087340;28;20804;-75
2021/10/05 03:36:07;;;;;;;37.40;34.50;;;13.00;96.90;;;;;;5071586;28;20541;-75
2021/10/05 03:38:36;;;;;;;38.53;35.33;;;13.10;96.60;;;;;;5072378;28;20481;-75
2021/10/05 03:41:03;;;;;;;39.80;36.60;;;13.10;96.90;;;;;;5070704;28;20468;-75
2021/10/05 03:43:30;;;;;;;35.00;32.17;;;13.20;96.90;;;;;;5071396;28;20516;-75
2021/10/05 03:45:57;;;;;;;37.90;34.90;;;13.10;96.00;;;;;;5070867;28;20826;-75
2021/10/05 03:48:24;;;;;;;36.10;33.30;;;13.10;96.00;;;;;;5071051;28;20533;-75
2021/10/05 03:50:52;;;;;;;31.70;29.23;;;13.10;96.00;;;;;;5080447;28;20553;-75
2021/10/05 03:53:20;;;;;;;32.17;29.77;;;13.10;95.80;;;;;;5075777;28;20453;-75
2021/10/05 03:55:51;;;;;;;32.93;30.43;;;13.10;95.60;;;;;;5071457;28;21123;-75
2021/10/05 03:58:18;;;;;;;32.67;30.27;;;13.20;95.20;;;;;;5071967;28;20566;-75
2021/10/05 04:00:46;;;;;;;33.33;30.93;;;13.20;95.00;;;;;;5072179;28;20476;-75
2021/10/05 04:03:13;;;;;;;33.93;31.37;;;13.20;94.70;;;;;;5071141;28;21001;-75
2021/10/05 04:05:40;;;;;;;34.33;31.53;;;13.40;94.50;;;;;;5070910;28;20533;-75
2021/10/05 04:08:09;;;;;;;33.60;31.00;;;13.30;94.60;;;;;;5070606;28;20804;-75
2021/10/05 04:10:36;;;;;;;35.07;32.53;;;13.20;95.20;;;;;;5077636;28;21030;-75
2021/10/05 04:13:05;;;;;;;34.37;31.67;;;13.20;95.60;;;;;;5071031;28;20446;-75
2021/10/05 04:15:32;;;;;;;35.27;32.37;;;13.20;95.70;;;;;;5083953;28;20818;-75
2021/10/05 04:17:59;;;;;;;37.00;34.10;;;13.30;95.60;;;;;;5077619;28;20469;-75
2021/10/05 04:20:25;;;;;;;37.40;34.57;;;13.30;95.60;;;;;;5080763;28;20476;-75
2021/10/05 04:22:53;;;;;;;33.97;31.27;;;13.40;95.80;;;;;;5077892;28;20454;-75
2021/10/05 04:25:19;;;;;;;35.53;32.73;;;13.40;95.90;;;;;;5082370;28;20476;-75
2021/10/05 04:27:46;;;;;;;32.50;30.00;;;13.40;95.80;;;;;;5075281;28;20450;-75
2021/10/05 04:30:15;;;;;;;34.87;32.17;;;13.40;95.70;;;;;;5071336;28;20561;-72
2021/10/05 04:32:42;;;;;;;35.27;32.57;;;13.40;95.70;;;;;;5072736;28;20466;-78
2021/10/05 04:35:10;;;;;;;34.93;31.77;;;13.40;95.50;;;;;;5071945;28;20999;-76
2021/10/05 04:37:37;;;;;;;33.60;31.10;;;13.40;95.70;;;;;;5074561;28;20557;-75
2021/10/05 04:40:06;;;;;;;33.57;31.07;;;13.40;95.60;;;;;;5082044;28;20831;-76
2021/10/05 04:42:33;;;;;;;32.60;30.10;;;13.50;95.40;;;;;;5078425;28;20481;-75
2021/10/05 04:45:00;;;;;;;31.80;29.27;;;13.50;94.90;;;;;;5070561;28;20456;-76
2021/10/05 04:47:28;;;;;;;32.57;30.17;;;13.50;94.80;;;;;;5075839;28;20458;-76
2021/10/05 04:49:55;;;;;;;32.60;30.30;;;13.50;94.60;;;;;;5080499;28;20566;-76
2021/10/05 04:52:22;;;;;;;31.27;28.97;;;13.40;94.60;;;;;;5074879;28;20453;-76
2021/10/05 04:54:49;;;;;;;32.60;30.20;;;13.40;94.80;;;;;;5073292;28;20461;-74
2021/10/05 04:57:15;;;;;;;33.07;30.50;;;13.40;95.10;;;;;;5070731;28;20883;-75
2021/10/05 04:59:42;;;;;;;33.03;30.53;;;13.30;95.30;;;;;;5076009;28;20815;-77
2021/10/05 05:02:09;;;;;;;33.90;31.40;;;13.20;95.80;;;;;;5085263;28;20509;-76
2021/10/05 05:04:37;;;;;;;33.40;30.90;;;13.20;96.10;;;;;;5074336;28;20453;-76
2021/10/05 05:07:05;;;;;;;32.40;29.90;;;13.30;96.00;;;;;;5074079;28;20486;-75
2021/10/05 05:09:32;;;;;;;33.07;30.50;;;13.30;95.90;;;;;;5072948;28;20545;-75
2021/10/05 05:11:59;;;;;;;32.33;29.93;;;13.30;95.80;;;;;;5075282;28;20488;-76
2021/10/05 05:14:29;;;;;;;33.23;30.77;;;13.40;95.80;;;;;;5081464;28;20449;-77
2021/10/05 05:16:56;;;;;;;32.17;29.70;;;13.30;95.60;;;;;;5077515;28;20482;-75
2021/10/05 05:19:23;;;;;;;31.73;29.13;;;13.30;95.80;;;;;;5071785;28;20512;-76
2021/10/05 05:21:53;;;;;;;31.87;29.33;;;13.40;95.80;;;;;;5078142;28;20480;-75
2021/10/05 05:24:20;;;;;;;30.10;27.80;;;13.40;95.60;;;;;;5073598;28;20465;-76
2021/10/05 05:26:47;;;;;;;31.10;28.80;;;13.40;95.30;;;;;;5078738;28;20461;-77
2021/10/05 05:29:14;;;;;;;29.73;27.63;;;13.50;95.00;;;;;;5070613;28;20542;-76
2021/10/05 05:31:40;;;;;;;31.70;29.37;;;13.50;94.80;;;;;;5072352;28;20478;-76
2021/10/05 05:34:07;;;;;;;31.00;28.50;;;13.40;94.80;;;;;;5077135;28;20966;-75
2021/10/05 05:36:34;;;;;;;31.30;28.90;;;13.30;95.10;;;;;;5073389;28;20549;-76
2021/10/05 05:39:03;;;;;;;32.97;30.33;;;13.40;95.30;;;;;;5078239;28;20843;-75
2021/10/05 05:41:30;;;;;;;31.63;29.37;;;13.40;95.40;;;;;;5072991;28;20557;-76
2021/10/05 05:43:57;;;;;;;33.80;31.33;;;13.40;95.40;;;;;;5075859;28;20466;-76
2021/10/05 05:46:23;;;;;;;31.43;29.13;;;13.40;95.60;;;;;;5070368;28;20458;-77
2021/10/05 05:48:50;;;;;;;30.57;28.27;;;13.40;95.50;;;;;;5070256;28;20477;-75
2021/10/05 05:51:17;;;;;;;30.67;28.47;;;13.40;95.50;;;;;;5069946;28;20585;-76
2021/10/05 05:53:45;;;;;;;30.93;28.50;;;13.40;95.60;;;;;;5069741;28;20454;-76
2021/10/05 05:56:13;;;;;;;31.00;28.80;;;13.40;95.50;;;;;;5061110;28;20458;-76
2021/10/05 05:58:40;;;;;;;29.67;27.47;;;13.40;95.20;;;;;;5069485;28;20482;-76
2021/10/05 06:01:07;;;;;;;31.90;29.10;;;13.40;95.30;;;;;;5068945;28;20486;-76
2021/10/05 06:03:34;;;;;;;31.13;28.73;;;13.40;95.70;;;;;;5071570;28;20454;-75
2021/10/05 06:06:01;;;;;;;95.00;32.73;;;13.50;96.00;;;;;;5081069;28;20458;-77
2021/10/05 06:08:28;;;;;;;29.47;27.27;;;13.50;96.10;;;;;;5075638;28;20523;-76
2021/10/05 06:10:54;;;;;;;28.27;26.27;;;13.50;96.30;;;;;;5076163;28;20486;-77
2021/10/05 06:13:23;;;;;;;41.47;28.57;;;13.50;96.00;;;;;;5077869;28;21042;-77
2021/10/05 06:15:50;;;;;;;29.67;27.27;;;13.60;96.30;;;;;;5078151;28;20461;-77
2021/10/05 06:18:17;;;;;;;31.63;29.33;;;13.60;96.50;;;;;;5075698;28;20478;-76
2021/10/05 06:20:43;;;;;;;29.47;27.27;;;13.70;96.40;;;;;;5068780;28;20470;-77
2021/10/05 06:23:10;;;;;;;27.55;25.27;;;13.80;96.20;;;;;;5070919;28;20472;-77
2021/10/05 06:25:40;;;;;;;29.97;27.60;;;14.10;95.70;;;;;;5082561;28;20210;-76
2021/10/05 06:28:08;;;;;;;29.67;26.93;;;14.10;95.20;;;;;;5082647;28;20457;-77
2021/10/05 06:30:37;;;;;;;27.57;25.67;;;14.20;95.60;;;;;;5077833;28;20553;-78
2021/10/05 06:33:06;;;;;;;27.70;25.77;;;14.20;95.00;;;;;;5078281;28;20541;-77
2021/10/05 06:35:33;;;;;;;28.50;26.30;;;14.30;94.80;;;;;;5076328;28;20457;-77
2021/10/05 06:38:01;;;;;;;26.03;24.23;;;14.40;94.60;;;;;;5092424;28;20504;-77
2021/10/05 06:40:31;;;;;;;26.73;24.93;;;14.50;94.40;;;;;;5076594;28;20552;-76
2021/10/05 06:42:58;;;;;;;26.60;24.90;;;14.50;94.00;;;;;;5076044;28;20560;-76
2021/10/05 06:45:25;;;;;;;27.30;25.50;;;14.60;93.20;;;;;;5074646;28;20496;-77
2021/10/05 06:47:54;;;;;;;27.93;25.23;;;14.70;92.90;;;;;;5079580;28;20937;-77
2021/10/05 06:50:22;;;;;;;26.57;24.80;;;14.60;92.60;;;;;;5085536;28;20563;-76
2021/10/05 06:52:50;;;;;;;26.70;24.90;;;14.70;92.40;;;;;;5079146;28;20455;-77
2021/10/05 06:55:21;;;;;;;26.17;24.40;;;14.70;91.60;;;;;;5075181;28;20478;-76
2021/10/05 06:57:49;;;;;;;27.13;24.97;;;14.80;91.40;;;;;;5083382;28;20465;-77
2021/10/05 07:00:17;;;;;;;26.63;24.83;;;14.80;91.20;;;;;;5077953;28;20505;-76
2021/10/05 07:02:45;;;;;;;28.00;26.10;;;14.90;91.20;;;;;;5083644;28;20458;-78
2021/10/05 07:05:15;;;;;;;30.07;27.10;;;14.90;91.10;;;;;;5071758;28;20809;-77
2021/10/05 07:07:43;;;;;;;28.73;26.63;;;14.90;90.40;;;;;;5070949;28;20512;-77
2021/10/05 07:10:15;;;;;;;28.20;25.90;;;14.90;90.50;;;;;;5082696;28;20486;-77
2021/10/05 07:12:43;;;;;;;28.03;26.13;;;15.00;90.10;;;;;;5071495;28;20476;-77
2021/10/05 07:15:13;;;;;;;29.37;26.67;;;15.10;89.60;;;;;;5070300;28;20984;-76
2021/10/05 07:17:42;;;;;;;30.73;28.00;;;15.10;89.20;;;;;;5083008;28;20453;-76
2021/10/05 07:20:12;;;;;;;30.50;28.20;;;15.20;89.20;;;;;;5071481;28;20482;-78
2021/10/05 07:22:45;;;;;;;29.23;27.13;;;15.20;88.90;;;;;;5079742;28;20470;-78
2021/10/05 07:25:18;;;;;;;27.33;25.43;;;15.30;88.50;;;;;;5077949;28;20467;-77
2021/10/05 07:27:54;;;;;;;28.43;26.20;;;15.40;88.40;;;;;;5082698;28;20948;-77
2021/10/05 07:30:23;;;;;;;29.23;27.13;;;15.50;87.80;;;;;;5073134;28;20468;-78
2021/10/05 07:32:52;;;;;;;29.53;27.53;;;15.70;87.30;;;;;;5073080;28;20797;-76
2021/10/05 07:35:19;;;;;;;26.73;25.00;;;15.70;87.60;;;;;;5075769;28;20449;-76
2021/10/05 07:37:48;;;;;;;28.23;26.13;;;15.70;86.90;;;;;;5069353;28;20450;-76
2021/10/05 07:40:20;;;;;;;29.97;27.73;;;15.80;86.20;;;;;;5079674;28;20482;-76
2021/10/05 07:42:47;;;;;;;29.37;27.10;;;15.70;86.20;;;;;;5088332;28;20456;-77
2021/10/05 07:45:14;;;;;;;29.13;27.23;;;15.80;86.80;;;;;;5070039;28;20465;-76
2021/10/05 07:47:44;;;;;;;32.30;30.07;;;15.90;86.50;;;;;;5077342;28;20503;-78
2021/10/05 07:50:11;;;;;;;29.93;27.83;;;16.00;85.50;;;;;;5075615;28;20477;-77
2021/10/05 07:52:38;;;;;;;27.67;25.97;;;16.00;85.00;;;;;;5076265;28;20454;-76
2021/10/05 07:55:08;;;;;;;27.93;25.83;;;16.10;84.90;;;;;;5078841;28;20795;-77
2021/10/05 07:57:35;;;;;;;29.73;27.60;;;16.10;84.70;;;;;;5069983;28;20458;-77
2021/10/05 08:00:03;;;;;;;28.90;27.00;;;16.10;85.30;;;;;;5075271;28;20481;-77
2021/10/05 08:02:30;;;;;;;27.50;25.80;;;16.20;84.90;;;;;;5068304;28;20450;-76
2021/10/05 08:04:58;;;;;;;27.90;26.20;;;16.20;84.30;;;;;;5072346;28;20461;-76
2021/10/05 08:07:26;;;;;;;29.83;27.87;;;16.20;83.80;;;;;;5081470;28;20457;-75
2021/10/05 08:09:53;;;;;;;28.70;26.80;;;16.20;83.80;;;;;;5071264;28;21026;-76
2021/10/05 08:12:22;;;;;;;30.87;28.67;;;16.20;83.90;;;;;;5074841;28;20458;-75
2021/10/05 08:14:49;;;;;;;29.50;27.50;;;16.10;84.00;;;;;;5075491;28;20456;-75
2021/10/05 08:17:16;;;;;;;31.23;29.03;;;16.00;84.10;;;;;;5074180;28;20457;-74
2021/10/05 08:19:43;;;;;;;30.63;28.63;;;15.90;84.50;;;;;;5073954;28;20565;-75
2021/10/05 08:22:10;;;;;;;30.23;28.23;;;15.90;84.80;;;;;;5070807;28;20454;-76
2021/10/05 08:24:37;;;;;;;29.10;27.20;;;15.90;84.60;;;;;;5071948;28;20466;-74
2021/10/05 08:27:05;;;;;;;32.40;27.70;;;15.90;84.50;;;;;;5081435;28;20454;-75
2021/10/05 08:29:34;;;;;;;28.90;27.00;;;15.90;84.80;;;;;;5069254;28;20454;-76
2021/10/05 08:32:01;;;;;;;28.70;27.00;;;16.00;85.10;;;;;;5085028;28;20489;-75
2021/10/05 08:34:28;;;;;;;28.33;26.53;;;16.10;83.90;;;;;;5073144;28;20461;-76
2021/10/05 08:36:55;;;;;;;30.47;28.47;;;16.10;84.00;;;;;;5069937;28;20477;-76
2021/10/05 08:39:22;;;;;;;29.03;26.83;;;16.20;83.70;;;;;;5068685;28;20477;-77
2021/10/05 08:41:49;;;;;;;27.97;26.27;;;16.30;83.60;;;;;;5077210;28;20983;-76
2021/10/05 08:44:17;;;;;;;26.30;24.80;;;16.50;83.10;;;;;;5069004;28;20488;-78
2021/10/05 08:46:46;;;;;;;27.30;25.70;;;16.60;82.50;;;;;;5067862;28;20570;-76
2021/10/05 08:49:13;;;;;;;27.53;25.83;;;16.90;82.30;;;;;;5068420;28;20446;-76
2021/10/05 08:51:40;;;;;;;27.73;25.97;;;17.00;81.20;;;;;;5072660;28;21328;-77
2021/10/05 08:54:10;;;;;;;25.77;24.03;;;17.10;81.20;;;;;;5073216;28;20456;-76
2021/10/05 08:56:37;;;;;;;27.30;25.80;;;17.00;81.30;;;;;;5081996;28;20448;-76
2021/10/05 08:59:04;;;;;;;29.20;27.60;;;17.00;81.40;;;;;;5076451;28;20543;-76
2021/10/05 09:01:34;;;;;;;27.63;26.13;;;17.10;80.60;;;;;;5074848;28;20478;-76
2021/10/05 09:04:04;;;;;;;28.77;26.40;;;17.20;79.90;;;;;;5071915;28;20454;-76
2021/10/05 09:06:32;;;;;;;27.53;26.03;;;17.30;80.10;;;;;;5080124;28;20459;-77
2021/10/05 09:09:01;;;;;;;26.83;25.37;;;17.30;80.20;;;;;;5070631;28;21032;-76
2021/10/05 09:11:38;;;;;;;26.53;25.03;;;17.30;80.30;;;;;;5069004;28;20466;-76
2021/10/05 09:14:05;;;;;;;27.53;26.03;;;17.30;80.40;;;;;;5071013;28;20450;-76
2021/10/05 09:16:33;;;;;;;26.40;25.00;;;17.40;80.20;;;;;;5068942;28;20454;-77
2021/10/05 09:19:04;;;;;;;26.10;24.67;;;17.40;79.70;;;;;;5068896;28;20484;-77
2021/10/05 09:21:33;;;;;;;26.40;25.00;;;17.50;79.50;;;;;;5067269;28;20500;-76
2021/10/05 09:24:02;;;;;;;27.47;25.87;;;17.50;79.80;;;;;;5072686;28;20816;-76
2021/10/05 09:26:45;;;;;;;26.80;25.30;;;17.60;79.30;;;;;;5071955;28;20782;-76
2021/10/05 09:29:14;;;;;;;26.60;25.00;;;17.60;79.20;;;;;;5067835;28;20457;-76
2021/10/05 09:31:54;;;;;;;27.23;25.73;;;17.60;78.90;;;;;;5075323;28;21267;-77
2021/10/05 09:34:38;;;;;;;26.27;24.70;;;17.60;79.80;;;;;;5072204;28;20485;-77
2021/10/05 09:37:09;;;;;;;27.23;25.67;;;17.70;79.70;;;;;;5073069;28;20453;-77
2021/10/05 09:39:47;;;;;;;25.97;24.57;;;17.70;79.00;;;;;;5074978;28;20586;-76
2021/10/05 09:42:26;;;;;;;27.87;26.00;;;18.00;78.40;;;;;;5067940;28;20499;-77
2021/10/05 09:44:56;;;;;;;29.07;27.00;;;18.10;78.20;;;;;;5082096;28;20453;-76
2021/10/05 09:47:34;;;;;;;30.77;28.27;;;18.20;77.60;;;;;;5070256;28;20553;-75
2021/10/05 09:50:09;;;;;;;27.83;26.23;;;18.30;77.70;;;;;;5075368;28;20477;-75
2021/10/05 09:52:41;;;;;;;26.93;25.40;;;18.40;76.40;;;;;;5074000;28;20953;-75
2021/10/05 09:55:09;;;;;;;29.67;27.80;;;18.40;76.50;;;;;;5076334;28;20930;-76
2021/10/05 09:57:36;;;;;;;31.37;29.00;;;18.50;76.50;;;;;;5074428;28;20461;-76
2021/10/05 10:00:05;;;;;;;29.83;28.03;;;18.70;76.30;;;;;;5071031;28;20565;-75
2021/10/05 10:02:35;;;;;;;29.23;27.33;;;18.90;76.20;;;;;;5062880;28;20480;-75
2021/10/05 10:05:19;;;;;;;27.77;25.90;;;19.10;75.00;;;;;;5067870;28;20461;-76
2021/10/05 10:07:52;;;;;;;27.57;25.97;;;19.10;74.50;;;;;;5068840;28;20450;-76
2021/10/05 10:10:21;;;;;;;28.40;26.80;;;19.20;73.90;;;;;;5067537;28;20478;-75
2021/10/05 10:12:52;;;;;;;29.00;27.20;;;19.20;73.20;;;;;;5068879;28;20451;-76
2021/10/05 10:15:22;;;;;;;28.53;26.73;;;19.20;72.70;;;;;;5067384;28;21163;-76
2021/10/05 10:17:49;;;;;;;27.70;26.10;;;19.10;72.90;;;;;;5066752;28;20500;-75
2021/10/05 10:20:32;;;;;;;28.40;26.80;;;19.00;73.30;;;;;;5066343;28;20493;-75
2021/10/05 10:23:18;;;;;;;28.70;27.10;;;19.00;73.20;;;;;;5067007;28;21027;-75
2021/10/05 10:25:54;;;;;;;28.03;26.50;;;19.00;73.40;;;;;;5076385;28;20954;-75
2021/10/05 10:28:27;;;;;;;29.03;27.43;;;18.80;74.40;;;;;;5074163;28;20454;-75
2021/10/05 10:30:57;;;;;;;27.20;25.70;;;19.00;73.80;;;;;;5074748;28;20495;-76
2021/10/05 10:33:42;;;;;;;28.13;26.40;;;19.00;73.90;;;;;;5068882;28;20458;-76
2021/10/05 10:36:15;;;;;;;28.30;26.60;;;19.10;74.00;;;;;;5079891;28;20468;-75
2021/10/05 10:38:44;;;;;;;31.77;29.50;;;19.30;74.00;;;;;;5083796;28;20486;-75
2021/10/05 10:41:24;;;;;;;27.03;25.43;;;19.30;74.10;;;;;;5079313;28;20474;-75
2021/10/05 10:43:58;;;;;;;27.47;25.97;;;19.50;72.10;;;;;;5071151;28;20450;-75
2021/10/05 10:46:30;;;;;;;27.27;25.77;;;19.40;72.60;;;;;;5077118;28;20461;-76
2021/10/05 10:48:59;;;;;;;28.03;26.50;;;19.50;73.30;;;;;;5072079;28;20492;-75
2021/10/05 10:51:37;;;;;;;26.93;25.43;;;19.70;73.10;;;;;;5080565;28;20487;-75
2021/10/05 10:54:15;;;;;;;26.60;25.20;;;19.70;73.20;;;;;;5083608;28;20469;-76
2021/10/05 10:56:42;;;;;;;27.03;25.50;;;19.80;72.50;;;;;;5079732;28;20481;-76
2021/10/05 10:59:13;;;;;;;26.97;25.47;;;19.80;72.40;;;;;;5081916;28;20580;-75
2021/10/05 11:01:45;;;;;;;28.53;26.93;;;19.80;72.70;;;;;;5078869;28;21021;-76
2021/10/05 11:04:14;;;;;;;26.93;25.43;;;19.70;73.40;;;;;;5077184;28;20465;-76
2021/10/05 11:06:51;;;;;;;27.13;25.63;;;19.60;73.70;;;;;;5084093;28;20544;-76
2021/10/05 11:09:32;;;;;;;26.67;25.27;;;19.50;74.20;;;;;;5076960;28;20465;-76
2021/10/05 11:12:02;;;;;;;26.57;25.07;;;19.60;73.90;;;;;;5073345;28;20643;-76
2021/10/05 11:14:31;;;;;;;26.93;25.53;;;19.60;73.60;;;;;;5072578;28;20534;-76
2021/10/05 11:17:01;;;;;;;26.73;25.13;;;19.80;73.00;;;;;;5070747;28;20458;-76
2021/10/05 11:19:30;;;;;;;26.07;24.60;;;19.70;73.40;;;;;;5077499;28;20481;-76
2021/10/05 11:22:07;;;;;;;26.13;24.73;;;19.70;73.20;;;;;;5070988;28;20484;-75
2021/10/05 11:24:39;;;;;;;26.77;24.87;;;19.50;73.10;;;;;;5073201;28;20518;-75
2021/10/05 11:27:16;;;;;;;28.47;26.73;;;19.50;73.90;;;;;;5084696;28;20466;-76
2021/10/05 11:29:54;;;;;;;25.80;24.20;;;19.50;74.40;;;;;;5082435;28;20457;-76
2021/10/05 11:32:21;;;;;;;27.53;26.10;;;19.60;73.80;;;;;;5072111;28;20836;-76
2021/10/05 11:34:53;;;;;;;25.07;23.77;;;19.60;73.20;;;;;;5074765;28;20454;-76
2021/10/05 11:37:25;;;;;;;26.20;24.80;;;19.60;73.40;;;;;;5075727;28;20451;-76
2021/10/05 11:39:58;;;;;;;26.60;25.20;;;19.90;72.80;;;;;;5078439;28;20501;-76
2021/10/05 11:42:27;;;;;;;26.87;25.40;;;20.20;72.90;;;;;;5086666;28;20454;-75
2021/10/05 11:44:57;;;;;;;28.13;26.63;;;20.30;71.30;;;;;;5070261;28;20488;-76
2021/10/05 11:47:25;;;;;;;25.97;24.57;;;20.30;70.90;;;;;;5071130;28;20473;-76
2021/10/05 11:49:57;;;;;;;26.03;24.73;;;20.30;71.20;;;;;;5072034;28;20449;-76
2021/10/05 11:52:26;;;;;;;28.20;26.60;;;20.40;71.30;;;;;;5088216;28;20457;-76
2021/10/05 11:54:54;;;;;;;26.03;24.63;;;20.10;70.40;;;;;;5073636;28;20870;-75
2021/10/05 11:57:24;;;;;;;25.80;24.37;;;20.00;70.50;;;;;;5081725;28;20549;-76
2021/10/05 11:59:52;;;;;;;26.60;25.10;;;19.90;71.60;;;;;;5080840;28;20485;-76
2021/10/05 12:02:21;;;;;;;27.47;25.83;;;19.90;71.80;;;;;;5082904;28;20962;-76
2021/10/05 12:04:49;;;;;;;24.87;23.50;;;19.90;71.70;;;;;;5075022;28;20468;-76
2021/10/05 12:07:18;;;;;;;26.90;25.40;;;19.80;71.40;;;;;;5079779;28;20841;-73
2021/10/05 12:09:49;;;;;;;27.70;25.73;;;19.90;71.40;;;;;;5073443;28;20461;-74
2021/10/05 12:12:17;;;;;;;24.90;23.60;;;20.00;71.30;;;;;;5082404;28;20923;-75
2021/10/05 12:14:52;;;;;;;26.30;24.60;;;20.10;70.70;;;;;;5072045;28;20876;-75
2021/10/05 12:17:19;;;;;;;25.07;23.77;;;20.20;70.40;;;;;;5073269;28;20532;-75
2021/10/05 12:19:58;;;;;;;25.03;23.43;;;20.30;69.90;;;;;;5078307;28;20834;-72
2021/10/05 12:22:27;;;;;;;26.50;24.70;;;20.40;69.30;;;;;;5070531;28;20465;-74
2021/10/05 12:24:57;;;;;;;24.80;23.50;;;20.50;69.40;;;;;;5070820;28;20537;-74
2021/10/05 12:27:37;;;;;;;25.73;24.17;;;20.60;68.30;;;;;;5078927;28;20461;-71
2021/10/05 12:30:13;;;;;;;26.93;24.73;;;20.60;68.70;;;;;;5075460;28;20478;-72
2021/10/05 12:32:43;;;;;;;25.50;24.10;;;20.60;68.30;;;;;;5075896;28;20468;-71
2021/10/05 12:35:26;;;;;;;24.80;23.50;;;20.60;69.00;;;;;;5074997;28;20453;-72
2021/10/05 12:38:00;;;;;;;25.30;23.80;;;20.60;68.70;;;;;;5085588;28;21205;-72